sensor_id;sensor_type;location;lat;lon;timestamp;P1;durP1;ratioP1;P2;durP2;ratioP2
1122;SDS011;548;48.778;9.252;2023-03-15T10:11:19;12.03;;;11.33;;
1122;SDS011;548;48.778;9.252;2023-03-15T10:13:55;12.23;;;11.50;;
1122;SDS011;548;48.778;9.252;2023-03-15T10:16:31;11.43;;;10.73;;
1122;SDS011;548;48.778;9.252;2023-03-15T10:19:05;11.87;;;10.97;;
1122;SDS011;548;48.778;9.252;2023-03-15T10:21:46;12.30;;;11.57;;
1122;SDS011;548;48.778;9.252;2023-03-15T10:24:19;11.30;;;10.80;;
1122;SDS011;548;48.778;9.252;2023-03-15T10:26:54;10.63;;;10.00;;
1122;SDS011;548;48.778;9.252;2023-03-15T10:29:24;11.30;;;10.60;;
1122;SDS011;548;48.778;9.252;2023-03-15T10:31:52;11.33;;;10.73;;
1122;SDS011;548;48.778;9.252;2023-03-15T10:34:20;10.83;;;10.40;;
1122;SDS011;548;48.778;9.252;2023-03-15T10:36:47;11.53;;;10.73;;
1122;SDS011;548;48.778;9.252;2023-03-15T10:39:18;11.17;;;10.50;;
1122;SDS011;548;48.778;9.252;2023-03-15T10:41:46;12.07;;;11.13;;
1122;SDS011;548;48.778;9.252;2023-03-15T10:44:16;13.70;;;11.97;;
1122;SDS011;548;48.778;9.252;2023-03-15T10:46:58;12.63;;;11.57;;
1122;SDS011;548;48.778;9.252;2023-03-15T10:49:33;13.53;;;12.30;;
1122;SDS011;548;48.778;9.252;2023-03-15T10:52:01;11.80;;;11.20;;
1122;SDS011;548;48.778;9.252;2023-03-15T10:54:30;12.50;;;11.53;;
1122;SDS011;548;48.778;9.252;2023-03-15T10:56:59;11.40;;;10.70;;
1122;SDS011;548;48.778;9.252;2023-03-15T10:59:30;11.07;;;10.43;;
1122;SDS011;548;48.778;9.252;2023-03-15T11:02:17;10.97;;;10.50;;
1122;SDS011;548;48.778;9.252;2023-03-15T11:04:47;11.77;;;10.90;;
1122;SDS011;548;48.778;9.252;2023-03-15T11:07:16;11.47;;;11.03;;
1122;SDS011;548;48.778;9.252;2023-03-15T11:09:43;11.00;;;10.50;;
1122;SDS011;548;48.778;9.252;2023-03-15T11:12:14;10.03;;;9.63;;
1122;SDS011;548;48.778;9.252;2023-03-15T11:14:44;10.30;;;9.90;;
1122;SDS011;548;48.778;9.252;2023-03-15T11:17:14;9.93;;;9.10;;
1122;SDS011;548;48.778;9.252;2023-03-15T11:19:44;9.50;;;9.00;;
1122;SDS011;548;48.778;9.252;2023-03-15T11:22:16;10.23;;;9.30;;
1122;SDS011;548;48.778;9.252;2023-03-15T11:24:43;11.10;;;10.47;;
1122;SDS011;548;48.778;9.252;2023-03-15T11:27:10;10.40;;;9.90;;
1122;SDS011;548;48.778;9.252;2023-03-15T11:29:40;10.60;;;10.10;;
1122;SDS011;548;48.778;9.252;2023-03-15T11:32:12;9.67;;;9.27;;
1122;SDS011;548;48.778;9.252;2023-03-15T11:34:43;9.90;;;9.37;;
1122;SDS011;548;48.778;9.252;2023-03-15T11:37:17;10.83;;;10.10;;
1122;SDS011;548;48.778;9.252;2023-03-15T11:39:50;12.30;;;11.23;;
1122;SDS011;548;48.778;9.252;2023-03-15T11:42:21;11.13;;;10.43;;
1122;SDS011;548;48.778;9.252;2023-03-15T11:44:54;10.63;;;10.13;;
1122;SDS011;548;48.778;9.252;2023-03-15T11:47:29;11.73;;;10.87;;
1122;SDS011;548;48.778;9.252;2023-03-15T11:50:04;11.03;;;10.30;;
1122;SDS011;548;48.778;9.252;2023-03-15T11:52:32;9.50;;;8.87;;
1122;SDS011;548;48.778;9.252;2023-03-15T11:54:59;9.93;;;9.43;;
1122;SDS011;548;48.778;9.252;2023-03-15T11:57:34;10.20;;;9.80;;
1122;SDS011;548;48.778;9.252;2023-03-15T12:03:27;10.83;;;10.13;;
1122;SDS011;548;48.778;9.252;2023-03-15T12:06:00;11.70;;;10.97;;
1122;SDS011;548;48.778;9.252;2023-03-15T12:08:45;11.17;;;10.60;;
1122;SDS011;548;48.778;9.252;2023-03-15T12:14:04;10.00;;;9.50;;
1122;SDS011;548;48.778;9.252;2023-03-15T12:16:45;9.57;;;9.17;;
1122;SDS011;548;48.778;9.252;2023-03-15T12:19:15;9.43;;;8.87;;
1122;SDS011;548;48.778;9.252;2023-03-15T12:21:43;10.83;;;10.30;;
1122;SDS011;548;48.778;9.252;2023-03-15T12:24:14;9.20;;;8.87;;
1122;SDS011;548;48.778;9.252;2023-03-15T12:26:46;10.00;;;9.50;;
1122;SDS011;548;48.778;9.252;2023-03-15T12:29:19;9.70;;;9.40;;
1122;SDS011;548;48.778;9.252;2023-03-15T12:31:52;9.43;;;8.70;;
1122;SDS011;548;48.778;9.252;2023-03-15T12:34:25;9.47;;;9.17;;
1122;SDS011;548;48.778;9.252;2023-03-15T12:36:56;9.93;;;9.40;;
1122;SDS011;548;48.778;9.252;2023-03-15T12:39:36;10.63;;;9.83;;
1122;SDS011;548;48.778;9.252;2023-03-15T12:42:11;10.00;;;9.57;;
1122;SDS011;548;48.778;9.252;2023-03-15T12:48:18;11.10;;;10.50;;
1122;SDS011;548;48.778;9.252;2023-03-15T12:50:51;10.40;;;9.90;;
1122;SDS011;548;48.778;9.252;2023-03-15T12:53:21;9.60;;;9.10;;
1122;SDS011;548;48.778;9.252;2023-03-15T12:55:53;10.00;;;9.40;;
1122;SDS011;548;48.778;9.252;2023-03-15T12:58:21;9.70;;;9.30;;
1122;SDS011;548;48.778;9.252;2023-03-15T13:00:52;10.13;;;9.53;;
1122;SDS011;548;48.778;9.252;2023-03-15T13:03:20;10.53;;;9.90;;
1122;SDS011;548;48.778;9.252;2023-03-15T13:05:51;10.90;;;10.07;;
1122;SDS011;548;48.778;9.252;2023-03-15T13:08:25;10.40;;;9.70;;
1122;SDS011;548;48.778;9.252;2023-03-15T13:11:02;10.43;;;9.93;;
1122;SDS011;548;48.778;9.252;2023-03-15T13:13:55;10.53;;;9.70;;
1122;SDS011;548;48.778;9.252;2023-03-15T13:16:32;9.73;;;9.33;;
1122;SDS011;548;48.778;9.252;2023-03-15T13:19:04;9.67;;;9.20;;
1122;SDS011;548;48.778;9.252;2023-03-15T13:21:49;10.47;;;9.70;;
1122;SDS011;548;48.778;9.252;2023-03-15T13:24:22;9.83;;;8.77;;
1122;SDS011;548;48.778;9.252;2023-03-15T13:26:58;10.73;;;10.20;;
1122;SDS011;548;48.778;9.252;2023-03-15T13:29:32;10.57;;;9.97;;
1122;SDS011;548;48.778;9.252;2023-03-15T13:32:00;9.93;;;9.43;;
1122;SDS011;548;48.778;9.252;2023-03-15T13:34:31;10.30;;;9.67;;
1122;SDS011;548;48.778;9.252;2023-03-15T13:37:00;11.07;;;10.33;;
1122;SDS011;548;48.778;9.252;2023-03-15T13:39:28;11.00;;;9.90;;
1122;SDS011;548;48.778;9.252;2023-03-15T13:41:56;10.57;;;9.80;;
1122;SDS011;548;48.778;9.252;2023-03-15T13:44:24;10.20;;;9.30;;
1122;SDS011;548;48.778;9.252;2023-03-15T13:46:51;10.47;;;9.87;;
1122;SDS011;548;48.778;9.252;2023-03-15T13:49:19;9.90;;;9.37;;
1122;SDS011;548;48.778;9.252;2023-03-15T13:51:46;8.70;;;8.03;;
1122;SDS011;548;48.778;9.252;2023-03-15T13:54:17;9.70;;;9.10;;
1122;SDS011;548;48.778;9.252;2023-03-15T13:56:52;9.73;;;9.13;;
1122;SDS011;548;48.778;9.252;2023-03-15T13:59:22;12.10;;;10.20;;
1122;SDS011;548;48.778;9.252;2023-03-15T14:01:53;9.20;;;8.63;;
1122;SDS011;548;48.778;9.252;2023-03-15T14:04:21;9.40;;;8.90;;
1122;SDS011;548;48.778;9.252;2023-03-15T14:06:50;10.17;;;9.37;;
1122;SDS011;548;48.778;9.252;2023-03-15T14:09:36;10.13;;;9.63;;
1122;SDS011;548;48.778;9.252;2023-03-15T14:12:04;10.43;;;9.77;;
1122;SDS011;548;48.778;9.252;2023-03-15T14:14:45;10.33;;;9.63;;
1122;SDS011;548;48.778;9.252;2023-03-15T14:17:17;9.90;;;9.20;;
1122;SDS011;548;48.778;9.252;2023-03-15T14:19:50;9.60;;;8.87;;
1122;SDS011;548;48.778;9.252;2023-03-15T14:22:19;10.80;;;9.80;;
1122;SDS011;548;48.778;9.252;2023-03-15T14:24:48;11.37;;;10.27;;
1122;SDS011;548;48.778;9.252;2023-03-15T14:27:17;10.43;;;9.60;;
1122;SDS011;548;48.778;9.252;2023-03-15T14:29:47;11.53;;;10.47;;
1122;SDS011;548;48.778;9.252;2023-03-15T14:32:22;9.60;;;9.20;;
1122;SDS011;548;48.778;9.252;2023-03-15T14:34:55;10.00;;;9.40;;
1122;SDS011;548;48.778;9.252;2023-03-15T14:37:26;9.70;;;9.30;;
1122;SDS011;548;48.778;9.252;2023-03-15T14:40:04;9.80;;;9.17;;
1122;SDS011;548;48.778;9.252;2023-03-15T14:42:36;10.37;;;9.67;;
1122;SDS011;548;48.778;9.252;2023-03-15T14:45:03;10.00;;;9.30;;
1122;SDS011;548;48.778;9.252;2023-03-15T14:47:31;10.17;;;9.57;;
1122;SDS011;548;48.778;9.252;2023-03-15T14:49:59;9.40;;;8.70;;
1122;SDS011;548;48.778;9.252;2023-03-15T14:52:26;9.57;;;9.00;;
1122;SDS011;548;48.778;9.252;2023-03-15T14:54:53;9.83;;;9.37;;
1122;SDS011;548;48.778;9.252;2023-03-15T14:57:21;9.87;;;9.43;;
1122;SDS011;548;48.778;9.252;2023-03-15T14:59:48;10.30;;;9.70;;
1122;SDS011;548;48.778;9.252;2023-03-15T15:02:15;13.23;;;12.63;;
1122;SDS011;548;48.778;9.252;2023-03-15T15:04:43;14.40;;;13.80;;
1122;SDS011;548;48.778;9.252;2023-03-15T15:07:12;15.23;;;14.40;;
1122;SDS011;548;48.778;9.252;2023-03-15T15:09:42;15.47;;;14.87;;
1122;SDS011;548;48.778;9.252;2023-03-15T15:12:15;19.33;;;18.57;;
1122;SDS011;548;48.778;9.252;2023-03-15T15:14:44;30.00;;;28.50;;
1122;SDS011;548;48.778;9.252;2023-03-15T15:17:11;31.33;;;29.60;;
1122;SDS011;548;48.778;9.252;2023-03-15T15:19:37;38.50;;;35.83;;
1122;SDS011;548;48.778;9.252;2023-03-15T15:22:04;33.57;;;31.43;;
1122;SDS011;548;48.778;9.252;2023-03-15T15:24:31;35.77;;;33.63;;
1122;SDS011;548;48.778;9.252;2023-03-15T15:26:57;35.27;;;33.37;;
1122;SDS011;548;48.778;9.252;2023-03-15T15:29:24;32.70;;;30.90;;
1122;SDS011;548;48.778;9.252;2023-03-15T15:31:52;33.60;;;31.70;;
1122;SDS011;548;48.778;9.252;2023-03-15T15:34:19;32.27;;;30.47;;
1122;SDS011;548;48.778;9.252;2023-03-15T15:36:45;33.70;;;32.00;;
1122;SDS011;548;48.778;9.252;2023-03-15T15:39:15;32.50;;;30.30;;
1122;SDS011;548;48.778;9.252;2023-03-15T15:41:46;31.40;;;29.80;;
1122;SDS011;548;48.778;9.252;2023-03-15T15:44:14;31.53;;;30.03;;
1122;SDS011;548;48.778;9.252;2023-03-15T15:46:42;32.07;;;30.27;;
1122;SDS011;548;48.778;9.252;2023-03-15T15:49:11;31.60;;;30.03;;
1122;SDS011;548;48.778;9.252;2023-03-15T15:51:38;31.70;;;30.10;;
1122;SDS011;548;48.778;9.252;2023-03-15T15:54:11;30.67;;;29.07;;
1122;SDS011;548;48.778;9.252;2023-03-15T15:56:40;33.40;;;31.77;;
1122;SDS011;548;48.778;9.252;2023-03-15T15:59:13;35.40;;;33.60;;
1122;SDS011;548;48.778;9.252;2023-03-15T16:01:41;32.03;;;30.03;;
1122;SDS011;548;48.778;9.252;2023-03-15T16:04:08;31.60;;;30.20;;
1122;SDS011;548;48.778;9.252;2023-03-15T16:06:36;33.07;;;30.87;;
1122;SDS011;548;48.778;9.252;2023-03-15T16:09:03;34.60;;;32.90;;
1122;SDS011;548;48.778;9.252;2023-03-15T16:11:32;35.60;;;33.60;;
1122;SDS011;548;48.778;9.252;2023-03-15T16:13:59;34.90;;;33.00;;
1122;SDS011;548;48.778;9.252;2023-03-15T16:16:26;35.00;;;33.30;;
1122;SDS011;548;48.778;9.252;2023-03-15T16:18:53;35.43;;;33.43;;
1122;SDS011;548;48.778;9.252;2023-03-15T16:21:23;32.40;;;30.80;;
1122;SDS011;548;48.778;9.252;2023-03-15T16:23:58;35.93;;;34.23;;
1122;SDS011;548;48.778;9.252;2023-03-15T16:26:30;36.00;;;34.20;;
1122;SDS011;548;48.778;9.252;2023-03-15T16:28:57;38.00;;;36.20;;
1122;SDS011;548;48.778;9.252;2023-03-15T16:31:24;35.30;;;33.50;;
1122;SDS011;548;48.778;9.252;2023-03-15T16:33:51;36.50;;;34.60;;
1122;SDS011;548;48.778;9.252;2023-03-15T16:36:18;36.73;;;34.97;;
1122;SDS011;548;48.778;9.252;2023-03-15T16:38:46;36.23;;;34.37;;
1122;SDS011;548;48.778;9.252;2023-03-15T16:41:14;36.17;;;34.47;;
1122;SDS011;548;48.778;9.252;2023-03-15T16:43:42;33.60;;;32.00;;
1122;SDS011;548;48.778;9.252;2023-03-15T16:46:13;35.17;;;33.27;;
1122;SDS011;548;48.778;9.252;2023-03-15T16:48:41;40.07;;;38.07;;
1122;SDS011;548;48.778;9.252;2023-03-15T16:51:08;35.80;;;34.00;;
1122;SDS011;548;48.778;9.252;2023-03-15T16:53:37;36.93;;;35.23;;
1122;SDS011;548;48.778;9.252;2023-03-15T16:56:09;37.17;;;35.50;;
1122;SDS011;548;48.778;9.252;2023-03-15T16:58:39;36.10;;;34.40;;
1122;SDS011;548;48.778;9.252;2023-03-15T17:01:07;36.20;;;34.50;;
1122;SDS011;548;48.778;9.252;2023-03-15T17:03:34;34.03;;;32.23;;
1122;SDS011;548;48.778;9.252;2023-03-15T17:06:01;34.60;;;33.00;;
1122;SDS011;548;48.778;9.252;2023-03-15T17:08:28;32.43;;;30.80;;
1122;SDS011;548;48.778;9.252;2023-03-15T17:10:55;32.27;;;30.77;;
1122;SDS011;548;48.778;9.252;2023-03-15T17:13:23;33.80;;;32.10;;
1122;SDS011;548;48.778;9.252;2023-03-15T17:15:53;33.10;;;31.60;;
1122;SDS011;548;48.778;9.252;2023-03-15T17:18:20;32.33;;;30.83;;
1122;SDS011;548;48.778;9.252;2023-03-15T17:20:48;30.83;;;29.33;;
1122;SDS011;548;48.778;9.252;2023-03-15T17:23:15;32.30;;;30.90;;
1122;SDS011;548;48.778;9.252;2023-03-15T17:25:44;31.87;;;30.47;;
1122;SDS011;548;48.778;9.252;2023-03-15T17:28:11;29.93;;;28.60;;
1122;SDS011;548;48.778;9.252;2023-03-15T17:30:38;31.17;;;29.77;;
1122;SDS011;548;48.778;9.252;2023-03-15T17:33:07;30.53;;;29.13;;
1122;SDS011;548;48.778;9.252;2023-03-15T17:35:34;32.23;;;30.73;;
1122;SDS011;548;48.778;9.252;2023-03-15T17:38:04;33.60;;;31.90;;
1122;SDS011;548;48.778;9.252;2023-03-15T17:40:36;32.37;;;30.77;;
1122;SDS011;548;48.778;9.252;2023-03-15T17:43:03;31.83;;;30.23;;
1122;SDS011;548;48.778;9.252;2023-03-15T17:45:31;30.83;;;29.30;;
1122;SDS011;548;48.778;9.252;2023-03-15T17:47:59;31.00;;;29.40;;
1122;SDS011;548;48.778;9.252;2023-03-15T17:50:28;30.63;;;29.03;;
1122;SDS011;548;48.778;9.252;2023-03-15T17:52:56;29.37;;;27.97;;
1122;SDS011;548;48.778;9.252;2023-03-15T17:55:26;30.43;;;28.93;;
1122;SDS011;548;48.778;9.252;2023-03-15T17:57:55;30.27;;;28.97;;
